Time;durP1;ratioP1;P1;durP2;ratioP2;P2;SDS_P1;SDS_P2;PMS_P1;PMS_P2;Temp;Humidity;BMP_temperature;BMP_pressure;BME280_temperature;BME280_humidity;BME280_pressure;Samples;Min_cycle;Max_cycle;Signal;HPM_P1;HPM_P2
2023/05/24 00:01:24;;;;;;;17.77;15.45;;;;;;;14.90;100.00;102113.94;5072563;28;20027;-73
2023/05/24 00:03:51;;;;;;;18.90;15.07;;;;;;;14.85;100.00;102093.50;5071952;28;20024;-73
2023/05/24 00:06:17;;;;;;;18.55;15.63;;;;;;;14.37;100.00;102036.00;5071882;28;20032;-73
2023/05/24 00:08:42;;;;;;;17.70;15.65;;;;;;;14.69;100.00;102035.66;5071604;28;20032;-73
2023/05/24 00:11:09;;;;;;;19.05;14.90;;;;;;;14.84;100.00;102068.75;5053245;28;20568;-73
2023/05/24 00:13:35;;;;;;;18.17;16.27;;;;;;;14.25;100.00;101961.88;5054068;28;20028;-73
2023/05/24 00:16:00;;;;;;;22.48;16.00;;;;;;;14.60;100.00;101995.63;5053626;28;20032;-73
2023/05/24 00:18:40;;;;;;;18.52;14.82;;;;;;;14.76;100.00;102009.09;5071951;28;20031;-73
2023/05/24 00:21:10;;;;;;;18.88;15.18;;;;;;;14.73;100.00;102055.22;5054074;28;20067;-73
2023/05/24 00:23:37;;;;;;;18.63;15.93;;;;;;;14.89;100.00;102031.13;5071749;28;20024;-73
2023/05/24 00:26:03;;;;;;;18.55;16.38;;;;;;;14.83;100.00;102048.28;5071887;28;20028;-73
2023/05/24 00:28:30;;;;;;;20.05;15.40;;;;;;;14.58;100.00;101986.25;5071816;28;20024;-73
2023/05/24 00:30:56;;;;;;;17.02;15.23;;;;;;;14.69;100.00;102012.59;5071874;28;20035;-73
2023/05/24 00:33:22;;;;;;;19.55;16.80;;;;;;;14.66;100.00;102007.50;5071350;28;20119;-73
2023/05/24 00:35:48;;;;;;;22.92;18.25;;;;;;;14.44;100.00;101970.25;5071282;28;20440;-73
2023/05/24 00:38:13;;;;;;;23.02;18.52;;;;;;;14.62;100.00;101980.25;5071459;28;20115;-74
2023/05/24 00:40:39;;;;;;;22.92;18.85;;;;;;;14.37;100.00;101956.66;5071393;28;20035;-73
2023/05/24 00:43:04;;;;;;;20.27;17.13;;;;;;;14.71;100.00;101968.19;5053904;28;20050;-74
2023/05/24 00:45:30;;;;;;;20.33;17.13;;;;;;;14.78;100.00;101971.50;5071459;28;20059;-74
2023/05/24 00:47:55;;;;;;;20.88;17.60;;;;;;;14.41;100.00;101913.97;5071462;28;20028;-73
2023/05/24 00:50:21;;;;;;;21.67;17.23;;;;;;;14.72;100.00;101979.25;5071368;28;20483;-73
2023/05/24 00:52:48;;;;;;;18.85;16.95;;;;;;;14.47;100.00;101908.78;5071567;28;20033;-73
2023/05/24 00:55:14;;;;;;;21.58;18.42;;;;;;;14.03;100.00;101822.31;5071253;28;20020;-73
2023/05/24 00:57:39;;;;;;;21.80;17.35;;;;;;;14.71;100.00;101905.88;5070667;28;20028;-73
2023/05/24 01:00:06;;;;;;;23.88;19.13;;;;;;;14.13;100.00;101854.56;5053143;28;20071;-74
2023/05/24 01:02:32;;;;;;;21.35;17.98;;;;;;;14.53;100.00;101893.34;5071524;28;20140;-73
2023/05/24 01:04:58;;;;;;;18.30;16.40;;;;;;;14.12;100.00;101813.66;5071374;28;20137;-73
2023/05/24 01:07:39;;;;;;;20.98;16.10;;;;;;;14.49;100.00;101851.56;5070584;28;20052;-73
2023/05/24 01:10:52;;;;;;;18.83;15.40;;;;;;;14.59;100.00;101835.22;5068251;28;20036;-74
2023/05/24 01:13:29;;;;;;;19.95;16.77;;;;;;;14.53;100.00;101831.91;5026255;28;20040;-72
2023/05/24 01:16:04;;;;;;;18.40;16.60;;;;;;;14.48;100.00;101826.00;5070967;28;20071;-72
2023/05/24 01:18:43;;;;;;;18.80;16.67;;;;;;;14.13;100.00;101771.88;5052950;28;20067;-72
2023/05/24 01:21:11;;;;;;;18.45;15.52;;;;;;;14.22;100.00;101790.47;5070878;28;20035;-71
2023/05/24 01:24:09;;;;;;;17.00;14.70;;;;;;;14.23;100.00;101809.25;5052780;28;20051;-72
2023/05/24 01:27:06;;;;;;;15.90;13.95;;;;;;;14.22;100.00;101787.94;5052778;28;20079;-72
2023/05/24 01:29:33;;;;;;;16.85;15.05;;;;;;;14.24;100.00;101782.81;5070836;28;20390;-72
2023/05/24 01:31:59;;;;;;;18.88;15.52;;;;;;;13.78;100.00;101762.97;5070468;28;20039;-72
2023/05/24 01:34:25;;;;;;;16.80;14.80;;;;;;;13.87;100.00;101775.63;5052277;28;20046;-71
2023/05/24 01:36:50;;;;;;;17.88;16.10;;;;;;;13.55;100.00;101752.13;5070034;28;20060;-71
2023/05/24 01:39:16;;;;;;;18.25;16.35;;;;;;;13.70;100.00;101790.31;5070775;28;20024;-72
2023/05/24 01:41:50;;;;;;;18.23;16.42;;;;;;;13.62;100.00;101830.47;5070544;28;20115;-72
2023/05/24 01:44:28;;;;;;;18.33;15.70;;;;;;;13.75;100.00;101865.25;5052061;28;20025;-71
2023/05/24 01:47:18;;;;;;;16.98;15.18;;;;;;;13.67;100.00;101844.03;5052534;28;20059;-71
2023/05/24 01:49:49;;;;;;;18.75;16.38;;;;;;;13.32;100.00;101881.84;5068109;28;20098;-72
2023/05/24 01:52:18;;;;;;;18.42;16.45;;;;;;;13.76;100.00;101982.00;5070473;28;20064;-71
2023/05/24 01:54:49;;;;;;;16.85;14.48;;;;;;;14.09;100.00;102002.97;5052401;28;20054;-71
2023/05/24 01:57:17;;;;;;;18.10;14.73;;;;;;;13.63;100.00;101952.28;5070647;28;20483;-72
2023/05/24 01:59:44;;;;;;;15.70;13.80;;;;;;;13.68;100.00;102011.88;5070453;28;20040;-72
2023/05/24 02:02:10;;;;;;;14.45;13.05;;;;;;;13.77;100.00;101987.94;5052388;28;20546;-72
2023/05/24 02:04:36;;;;;;;15.27;13.65;;;;;;;13.61;100.00;101971.03;5051897;28;20414;-73
2023/05/24 02:07:01;;;;;;;18.77;14.95;;;;;;;13.38;100.00;101967.81;5070383;28;20048;-72
2023/05/24 02:09:27;;;;;;;14.23;12.82;;;;;;;13.82;100.00;102020.31;5051718;28;20044;-71
2023/05/24 02:11:52;;;;;;;14.88;13.38;;;;;;;13.38;100.00;101924.38;5070737;28;20028;-72
2023/05/24 02:14:18;;;;;;;12.85;11.55;;;;;;;13.66;100.00;102010.19;5051822;28;20024;-72
2023/05/24 02:16:45;;;;;;;13.55;12.20;;;;;;;13.49;100.00;101983.94;5070372;28;20550;-71
2023/05/24 02:19:11;;;;;;;14.00;12.60;;;;;;;13.35;100.00;101970.41;5053415;28;20024;-72
2023/05/24 02:21:37;;;;;;;17.40;15.70;;;;;;;13.88;100.00;102024.50;5064100;28;20136;-72
2023/05/24 02:24:03;;;;;;;21.45;18.77;;;;;;;13.57;100.00;101931.03;5069636;28;20031;-72
2023/05/24 02:26:28;;;;;;;15.73;14.02;;;;;;;13.18;100.00;101914.31;5073847;28;20032;-72
2023/05/24 02:28:53;;;;;;;16.08;12.55;;;;;;;13.86;100.00;102006.59;5055223;28;20056;-72
2023/05/24 02:31:20;;;;;;;14.65;13.25;;;;;;;13.92;100.00;102003.97;5061685;28;20070;-71
2023/05/24 02:33:45;;;;;;;13.10;11.80;;;;;;;14.16;100.00;101974.78;5072900;28;20024;-72
2023/05/24 02:36:11;;;;;;;15.75;12.15;;;;;;;13.67;100.00;101914.75;5072851;28;20040;-72
2023/05/24 02:38:37;;;;;;;16.33;14.60;;;;;;;13.77;100.00;101908.69;5073171;28;20024;-74
2023/05/24 02:41:02;;;;;;;15.30;13.70;;;;;;;13.68;100.00;101904.53;5054582;28;20060;-71
2023/05/24 02:43:28;;;;;;;15.98;12.98;;;;;;;13.59;100.00;101888.41;5072306;28;20033;-71
2023/05/24 02:45:53;;;;;;;12.00;10.90;;;;;;;13.66;100.00;101933.50;5050164;28;20058;-72
2023/05/24 02:48:19;;;;;;;13.98;12.57;;;;;;;12.93;100.00;101854.03;5055321;28;20040;-72
2023/05/24 02:50:44;;;;;;;13.90;12.23;;;;;;;13.58;100.00;101915.69;5071564;28;20492;-70
2023/05/24 02:53:10;;;;;;;14.73;13.32;;;;;;;13.44;100.00;101929.44;5072782;28;20067;-71
2023/05/24 02:55:36;;;;;;;16.65;13.65;;;;;;;13.43;100.00;101912.44;5045447;28;20036;-73
2023/05/24 02:58:01;;;;;;;16.40;14.70;;;;;;;13.21;100.00;101870.03;5058125;28;20074;-71
2023/05/24 03:00:27;;;;;;;16.00;14.32;;;;;;;13.29;100.00;101901.47;5073020;28;20116;-71
2023/05/24 03:02:52;;;;;;;14.88;13.18;;;;;;;13.12;100.00;101853.06;5072478;28;20032;-72
2023/05/24 03:05:18;;;;;;;31.35;19.80;;;;;;;13.42;100.00;101847.69;5069191;28;20116;-73
2023/05/24 03:07:43;;;;;;;56.42;33.95;;;;;;;13.65;100.00;101853.41;5055113;28;20048;-71
2023/05/24 03:10:09;;;;;;;28.42;19.52;;;;;;;13.47;100.00;101880.88;5053533;28;20031;-75
2023/05/24 03:12:35;;;;;;;19.58;16.13;;;;;;;13.47;100.00;101883.44;5054797;28;20030;-70
2023/05/24 03:15:00;;;;;;;23.95;17.92;;;;;;;13.11;100.00;101805.41;5054058;28;20028;-70
2023/05/24 03:17:25;;;;;;;16.73;14.00;;;;;;;13.35;100.00;101840.94;5072798;28;20062;-70
2023/05/24 03:19:51;;;;;;;17.27;14.40;;;;;;;13.29;100.00;101851.19;5072330;28;20025;-71
2023/05/24 03:22:17;;;;;;;15.52;13.93;;;;;;;13.53;100.00;101847.56;5072163;28;20028;-69
2023/05/24 03:24:45;;;;;;;16.83;14.98;;;;;;;13.12;100.00;101779.00;5052753;28;20020;-70
2023/05/24 03:27:10;;;;;;;19.23;15.68;;;;;;;13.24;100.00;101807.00;5071956;28;20040;-73
2023/05/24 03:29:36;;;;;;;19.95;15.48;;;;;;;13.05;100.00;101739.91;5071712;28;20116;-69
2023/05/24 03:32:01;;;;;;;34.88;20.23;;;;;;;13.12;100.00;101799.44;5071534;28;20112;-71
2023/05/24 03:34:27;;;;;;;40.80;21.45;;;;;;;13.12;100.00;101799.44;5071982;28;20065;-74
2023/05/24 03:36:52;;;;;;;51.00;18.88;;;;;;;12.85;100.00;101776.66;5071860;28;20464;-69
2023/05/24 03:39:17;;;;;;;73.45;21.77;;;;;;;13.44;100.00;101884.31;5053058;28;20537;-70
2023/05/24 03:41:43;;;;;;;49.08;21.00;;;;;;;13.34;100.00;101903.13;5054278;28;20628;-77
2023/05/24 03:44:09;;;;;;;29.33;22.80;;;;;;;13.12;100.00;101882.84;5071819;28;20097;-74
2023/05/24 03:46:34;;;;;;;32.88;22.17;;;;;;;12.96;100.00;101871.88;5071702;28;20032;-71
2023/05/24 03:49:00;;;;;;;32.38;21.80;;;;;;;13.56;100.00;101965.97;5054215;28;20036;-73
2023/05/24 03:51:28;;;;;;;36.05;22.95;;;;;;;13.58;100.00;101948.91;5054050;28;20040;-70
2023/05/24 03:53:57;;;;;;;31.42;22.70;;;;;;;13.80;100.00;101981.13;5054366;28;20024;-71
2023/05/24 03:56:23;;;;;;;28.88;20.48;;;;;;;13.41;100.00;101914.16;5071432;28;20032;-72
2023/05/24 03:58:51;;;;;;;25.80;18.80;;;;;;;13.70;100.00;101973.53;5053525;28;20033;-74
2023/05/24 04:01:16;;;;;;;21.45;16.77;;;;;;;13.31;100.00;101941.47;5053195;28;20029;-74
2023/05/24 04:03:44;;;;;;;21.27;17.25;;;;;;;13.31;100.00;101925.31;5051615;28;20029;-71
2023/05/24 04:06:10;;;;;;;18.52;15.27;;;;;;;13.55;100.00;101948.94;5052410;28;20090;-74
2023/05/24 04:08:36;;;;;;;22.88;15.02;;;;;;;13.56;100.00;101924.22;5051994;28;20481;-72
2023/05/24 04:11:01;;;;;;;18.35;13.55;;;;;;;13.44;100.00;101919.22;5017868;28;20049;-72
2023/05/24 04:13:27;;;;;;;15.40;12.02;;;;;;;13.41;100.00;101896.25;5050721;28;20029;-71
2023/05/24 04:15:52;;;;;;;12.68;11.35;;;;;;;13.36;100.00;101891.19;5071061;28;20032;-71
2023/05/24 04:18:18;;;;;;;18.98;10.70;;;;;;;13.36;100.00;101869.88;5070435;28;20509;-72
2023/05/24 04:20:43;;;;;;;16.98;11.15;;;;;;;13.87;100.00;101911.13;5071512;28;20532;-72
2023/05/24 04:23:09;;;;;;;15.13;11.00;;;;;;;13.58;100.00;101861.16;5053548;28;20029;-72
2023/05/24 04:25:34;;;;;;;17.27;11.75;;;;;;;13.81;100.00;101900.13;5071035;28;20566;-72
2023/05/24 04:28:02;;;;;;;13.18;11.35;;;;;;;13.81;100.00;101819.16;5069360;28;20058;-72
2023/05/24 04:30:29;;;;;;;19.80;11.07;;;;;;;14.05;100.00;101847.84;5033986;28;20055;-73
2023/05/24 04:32:58;;;;;;;16.83;10.98;;;;;;;14.30;100.00;101845.00;5051972;28;20036;-72
2023/05/24 04:35:24;;;;;;;13.13;10.10;;;;;;;16.13;100.00;101788.84;5044378;28;20028;-73
2023/05/24 04:37:53;;;;;;;13.55;10.63;;;;;;;15.68;100.00;101730.81;5052350;28;20036;-72
2023/05/24 04:40:21;;;;;;;11.20;10.00;;;;;;;14.88;100.00;101759.63;5052559;28;20124;-73
2023/05/24 04:42:47;;;;;;;14.50;10.63;;;;;;;14.91;100.00;101755.34;5063709;28;20493;-73
2023/05/24 04:45:13;;;;;;;15.05;11.20;;;;;;;15.25;100.00;101712.84;5070022;28;20430;-76
2023/05/24 04:47:38;;;;;;;14.40;10.02;;;;;;;16.05;100.00;101759.94;5071058;28;20020;-74
2023/05/24 04:50:05;;;;;;;13.90;10.50;;;;;;;16.22;100.00;101750.13;5052408;28;20127;-75
2023/05/24 04:52:32;;;;;;;13.15;10.25;;;;;;;16.07;100.00;101721.41;5051451;28;20037;-74
2023/05/24 04:54:57;;;;;;;15.02;10.20;;;;;;;16.15;100.00;101698.97;5071440;28;20021;-73
2023/05/24 04:57:23;;;;;;;13.07;10.57;;;;;;;16.37;100.00;101736.13;5071025;28;20036;-75
2023/05/24 04:59:48;;;;;;;15.48;9.93;;;;;;;16.25;100.00;101669.66;5052463;28;20527;-74
2023/05/24 05:02:14;;;;;;;11.55;9.88;;;;;;;16.46;100.00;101662.28;5071150;28;20446;-76
2023/05/24 05:04:39;;;;;;;11.55;10.02;;;;;;;16.58;100.00;101748.47;5071447;28;20020;-74
2023/05/24 05:07:06;;;;;;;14.60;11.13;;;;;;;16.59;100.00;101697.94;5053077;28;20075;-74
2023/05/24 05:09:31;;;;;;;12.48;9.80;;;;;;;17.14;100.00;101717.03;5053203;28;20085;-74
2023/05/24 05:11:57;;;;;;;15.30;10.13;;;;;;;17.34;100.00;101748.19;5071233;28;20122;-74
2023/05/24 05:14:22;;;;;;;19.75;11.45;;;;;;;17.25;100.00;101761.28;5071304;28;20536;-74
2023/05/24 05:16:48;;;;;;;16.20;11.50;;;;;;;16.58;100.00;101722.78;5070794;28;20105;-74
2023/05/24 05:19:13;;;;;;;12.77;10.77;;;;;;;17.56;100.00;101729.63;5070873;28;20028;-74
2023/05/24 05:21:39;;;;;;;13.73;11.00;;;;;;;17.65;100.00;101757.69;5070258;28;20090;-74
2023/05/24 05:24:05;;;;;;;15.48;11.65;;;;;;;17.35;100.00;101731.88;5070951;28;20031;-74
2023/05/24 05:26:30;;;;;;;13.30;12.00;;;;;;;17.85;100.00;101732.19;5070659;28;20105;-74
2023/05/24 05:28:57;;;;;;;23.55;16.60;;;;;;;16.89;100.00;101710.88;5071160;28;20036;-74
2023/05/24 05:31:22;;;;;;;16.58;14.48;;;;;;;17.86;100.00;101755.31;5070333;28;20035;-74
2023/05/24 05:33:48;;;;;;;17.38;13.70;;;;;;;17.41;100.00;101706.88;5071006;28;20032;-74
2023/05/24 05:36:15;;;;;;;19.23;14.02;;;;;;;17.73;100.00;101693.94;5070849;28;20028;-74
2023/05/24 05:38:40;;;;;;;18.13;14.15;;;;;;;17.76;100.00;101689.56;5071508;28;20135;-74
2023/05/24 05:41:08;;;;;;;16.17;12.90;;;;;;;18.57;100.00;101750.56;5053131;28;20033;-73
2023/05/24 05:43:37;;;;;;;16.30;12.50;;;;;;;18.28;100.00;101670.78;5049641;28;20056;-73
2023/05/24 05:46:03;;;;;;;19.42;14.68;;;;;;;18.79;100.00;101750.69;5050446;28;20029;-73
2023/05/24 05:48:28;;;;;;;17.65;12.75;;;;;;;18.66;100.00;101703.84;5050409;28;20036;-74
2023/05/24 05:50:54;;;;;;;15.65;12.18;;;;;;;18.78;100.00;101748.97;5050879;28;20048;-74
2023/05/24 05:53:19;;;;;;;16.25;12.02;;;;;;;18.55;100.00;101756.63;5053676;28;20107;-74
2023/05/24 05:55:45;;;;;;;17.02;11.82;;;;;;;18.85;100.00;101771.09;5053436;28;20020;-74
2023/05/24 05:58:11;;;;;;;16.48;13.30;;;;;;;18.90;100.00;101723.66;5054212;28;20059;-75
2023/05/24 06:00:39;;;;;;;16.88;13.48;;;;;;;19.22;100.00;101760.38;5054757;28;20032;-73
2023/05/24 06:03:04;;;;;;;17.02;13.30;;;;;;;18.99;100.00;101764.56;5054549;28;20091;-74
2023/05/24 06:05:30;;;;;;;14.40;12.82;;;;;;;18.45;100.00;101685.69;5052963;28;20029;-74
2023/05/24 06:07:55;;;;;;;14.35;12.82;;;;;;;18.88;100.00;101691.94;5036306;28;20115;-74
2023/05/24 06:10:20;;;;;;;15.05;12.60;;;;;;;19.28;100.00;101683.63;5054227;28;20585;-74
2023/05/24 06:12:46;;;;;;;15.30;12.02;;;;;;;19.41;100.00;101671.16;5054004;28;20025;-73
2023/05/24 06:15:12;;;;;;;16.90;12.05;;;;;;;19.80;100.00;101734.19;5053821;28;20035;-74
2023/05/24 06:17:38;;;;;;;17.42;12.25;;;;;;;19.70;100.00;101725.09;5054205;28;20064;-73
2023/05/24 06:20:14;;;;;;;13.43;12.00;;;;;;;20.03;100.00;101747.03;5054189;28;20021;-73
2023/05/24 06:22:41;;;;;;;14.13;11.60;;;;;;;20.46;100.00;101728.97;5052837;28;20086;-74
2023/05/24 06:25:07;;;;;;;14.82;11.27;;;;;;;19.87;100.00;101678.81;5036077;28;20032;-73
2023/05/24 06:27:32;;;;;;;21.92;11.52;;;;;;;20.00;100.00;101736.84;5053095;28;20033;-73
2023/05/24 06:29:58;;;;;;;15.45;11.68;;;;;;;20.86;100.00;101746.25;5053935;28;20483;-74
2023/05/24 06:32:23;;;;;;;15.75;11.10;;;;;;;20.14;100.00;101711.31;5053332;28;20029;-74
2023/05/24 06:34:49;;;;;;;13.43;10.60;;;;;;;20.82;100.00;101666.31;5053774;28;20456;-74
2023/05/24 06:37:14;;;;;;;14.32;10.50;;;;;;;20.95;100.00;101738.13;5051881;28;20050;-74
2023/05/24 06:39:40;;;;;;;14.80;9.57;;;;;;;21.07;100.00;101741.97;5053762;28;20036;-73
2023/05/24 06:42:06;;;;;;;14.02;9.20;;;;;;;20.69;100.00;101722.88;5053327;28;20104;-75
2023/05/24 06:44:33;;;;;;;13.13;8.98;;;;;;;21.10;100.00;101734.06;5053469;28;20033;-74
2023/05/24 06:47:02;;;;;;;12.05;8.93;;;;;;;21.61;100.00;101711.03;5053413;28;20033;-74
2023/05/24 06:49:28;;;;;;;12.93;8.55;;;;;;;21.73;100.00;101689.75;5053785;28;20036;-74
2023/05/24 06:51:53;;;;;;;10.95;8.57;;;;;;;20.99;100.00;101674.16;5053971;28;20033;-74
2023/05/24 06:54:19;;;;;;;9.85;8.30;;;;;;;21.06;100.00;101626.44;5053192;28;20091;-73
2023/05/24 06:56:45;;;;;;;9.15;8.05;;;;;;;21.50;100.00;101661.50;5053152;28;20056;-73
2023/05/24 06:59:10;;;;;;;9.80;8.10;;;;;;;21.80;100.00;101670.44;5035810;28;20118;-74
2023/05/24 07:01:38;;;;;;;12.60;8.90;;;;;;;21.99;100.00;101673.00;5051466;28;20709;-74
2023/05/24 07:04:08;;;;;;;9.00;8.00;;;;;;;21.99;100.00;101655.72;5050949;28;20029;-74
2023/05/24 07:06:34;;;;;;;9.07;8.00;;;;;;;21.21;100.00;101592.97;5032443;28;20032;-74
2023/05/24 07:09:03;;;;;;;11.90;7.80;;;;;;;21.68;100.00;101645.13;5052710;28;20435;-74
2023/05/24 07:11:29;;;;;;;14.23;8.27;;;;;;;22.07;100.00;101593.16;5052698;28;20039;-74
2023/05/24 07:13:54;;;;;;;11.52;8.27;;;;;;;22.61;100.00;101574.84;5035419;28;20033;-74
2023/05/24 07:16:20;;;;;;;11.65;8.05;;;;;;;22.66;100.00;101629.06;5053055;28;20404;-73
2023/05/24 07:18:47;;;;;;;9.73;7.70;;;;;;;23.03;100.00;101598.53;5053355;28;20021;-73
2023/05/24 07:21:13;;;;;;;11.23;7.32;;;;;;;23.39;100.00;101569.75;5052804;28;20029;-74
2023/05/24 07:23:38;;;;;;;11.10;7.53;;;;;;;21.77;100.00;101550.63;5052236;28;20051;-74
2023/05/24 07:26:04;;;;;;;8.23;6.80;;;;;;;22.28;100.00;101515.16;5050946;28;20517;-74
2023/05/24 07:28:30;;;;;;;8.07;6.97;;;;;;;22.36;100.00;101481.91;5051895;28;20658;-74
2023/05/24 07:30:55;;;;;;;10.60;6.65;;;;;;;22.21;100.00;101500.84;5052206;28;20064;-74
2023/05/24 07:33:21;;;;;;;7.90;5.68;;;;;;;21.59;100.00;101446.16;5034312;28;20032;-73
2023/05/24 07:35:50;;;;;;;8.70;5.78;;;;;;;23.19;100.00;101510.28;5045252;28;20469;-73
2023/05/24 07:38:17;;;;;;;6.93;6.30;;;;;;;23.27;100.00;101453.56;5071708;28;20033;-73
2023/05/24 07:40:42;;;;;;;7.35;6.55;;;;;;;23.18;100.00;101504.25;5053565;28;20039;-72
2023/05/24 07:43:08;;;;;;;10.63;6.22;;;;;;;23.76;100.00;101482.78;5072810;28;20041;-73
2023/05/24 07:45:33;;;;;;;7.63;5.85;;;;;;;23.38;100.00;101476.34;5072451;28;20407;-73
2023/05/24 07:48:00;;;;;;;8.27;5.90;;;;;;;24.11;100.00;101468.56;5072248;28;20430;-74
2023/05/24 07:50:25;;;;;;;11.48;5.50;;;;;;;24.47;100.00;101419.50;5072266;28;20506;-74
2023/05/24 07:52:51;;;;;;;8.40;6.07;;;;;;;23.76;100.00;101407.44;5072717;28;20024;-73
2023/05/24 07:55:16;;;;;;;10.27;5.63;;;;;;;23.61;100.00;101390.97;5072309;28;20036;-74
2023/05/24 07:57:42;;;;;;;10.35;5.82;;;;;;;23.49;100.00;101396.09;5054335;28;20031;-73
2023/05/24 08:00:11;;;;;;;8.77;5.28;;;;;;;24.31;100.00;101404.94;5072358;28;20031;-73
2023/05/24 08:02:37;;;;;;;8.05;4.50;;;;;;;24.14;100.00;101379.16;5072137;28;20067;-74
2023/05/24 08:05:03;;;;;;;7.22;5.15;;;;;;;24.48;100.00;101369.13;5054080;28;20053;-74
2023/05/24 08:07:29;;;;;;;7.90;4.88;;;;;;;24.04;100.00;101364.13;5071996;28;20194;-74
2023/05/24 08:09:54;;;;;;;7.60;5.00;;;;;;;24.65;100.00;101387.13;5071957;28;20490;-73
2023/05/24 08:12:20;;;;;;;8.77;4.68;;;;;;;24.44;100.00;101385.88;5053914;28;20029;-73
2023/05/24 08:14:45;;;;;;;7.90;4.60;;;;;;;24.18;100.00;101367.63;5070938;28;20032;-73
2023/05/24 08:17:11;;;;;;;5.93;5.13;;;;;;;24.40;100.00;101327.19;5053249;28;20059;-74
2023/05/24 08:19:36;;;;;;;6.70;4.72;;;;;;;24.50;100.00;101319.63;5071636;28;20063;-73
2023/05/24 08:22:03;;;;;;;6.30;4.90;;;;;;;24.59;100.00;101332.88;5072269;28;20407;-74
2023/05/24 08:24:30;;;;;;;5.57;4.47;;;;;;;23.11;100.00;101295.28;5053645;28;20487;-77
2023/05/24 08:26:56;;;;;;;6.82;4.95;;;;;;;25.06;100.00;101331.59;5072196;28;20024;-74
2023/05/24 08:29:21;;;;;;;6.82;4.63;;;;;;;24.16;100.00;101287.13;5071752;28;20147;-73
2023/05/24 08:31:47;;;;;;;5.97;4.68;;;;;;;25.13;100.00;101262.53;5071146;28;20169;-73
2023/05/24 08:34:12;;;;;;;8.00;4.63;;;;;;;24.92;100.00;101249.19;5053404;28;20032;-73
2023/05/24 08:36:41;;;;;;;5.85;4.72;;;;;;;24.48;100.00;101311.09;5071269;28;20392;-74
2023/05/24 08:39:07;;;;;;;7.13;4.80;;;;;;;24.63;100.00;101232.03;5071298;28;20051;-74
2023/05/24 08:41:36;;;;;;;5.35;4.07;;;;;;;24.96;100.00;101286.28;5071434;28;20475;-74
2023/05/24 08:44:04;;;;;;;8.35;4.20;;;;;;;24.82;100.00;101277.59;5071564;28;20029;-74
2023/05/24 08:46:30;;;;;;;7.70;4.40;;;;;;;25.34;100.00;101305.34;5053677;28;20120;-74
2023/05/24 08:48:57;;;;;;;6.35;4.00;;;;;;;26.29;100.00;101361.25;5053242;28;20441;-74
2023/05/24 08:51:23;;;;;;;5.93;4.53;;;;;;;25.79;100.00;101339.53;5070814;28;20479;-74
2023/05/24 08:53:49;;;;;;;8.57;4.10;;;;;;;25.89;100.00;101305.00;5070919;28;20051;-75
2023/05/24 08:56:16;;;;;;;6.15;4.30;;;;;;;26.45;100.00;101304.41;5070777;28;20425;-75
2023/05/24 08:58:42;;;;;;;4.80;4.05;;;;;;;26.37;100.00;101255.41;5071090;28;20028;-74
2023/05/24 09:01:10;;;;;;;6.50;4.13;;;;;;;26.34;100.00;101184.38;5070552;28;20043;-74
2023/05/24 09:03:35;;;;;;;8.50;5.93;;;;;;;25.03;100.00;101210.25;5071655;28;20029;-75
2023/05/24 09:06:02;;;;;;;6.63;4.95;;;;;;;24.92;100.00;101049.59;5053409;28;20036;-74
2023/05/24 09:08:28;;;;;;;4.50;3.97;;;;;;;25.24;100.00;101049.94;5052973;28;20080;-75
2023/05/24 09:10:54;;;;;;;4.28;3.85;;;;;;;25.69;100.00;101004.91;5071046;28;20064;-74
2023/05/24 09:13:22;;;;;;;4.88;4.32;;;;;;;24.98;100.00;100935.59;5052674;28;20032;-75
2023/05/24 09:15:47;;;;;;;7.72;4.35;;;;;;;25.85;100.00;100897.72;5071013;28;20031;-78
2023/05/24 09:18:13;;;;;;;8.40;4.60;;;;;;;25.85;100.00;100844.78;5071143;28;20037;-75
2023/05/24 09:20:38;;;;;;;5.18;4.32;;;;;;;25.13;100.00;100861.59;5053050;28;20514;-75
2023/05/24 09:23:04;;;;;;;7.38;4.93;;;;;;;25.58;100.00;100816.47;5053195;28;20414;-75
2023/05/24 09:25:30;;;;;;;7.15;4.40;;;;;;;26.13;100.00;100763.47;5071330;28;20033;-74
2023/05/24 09:27:55;;;;;;;5.90;4.60;;;;;;;25.08;100.00;100648.44;5055830;28;20031;-75
2023/05/24 09:30:21;;;;;;;7.53;4.68;;;;;;;26.65;100.00;100721.78;5074494;28;20606;-74
2023/05/24 09:32:57;;;;;;;5.13;4.40;;;;;;;26.91;100.00;100702.19;5075126;28;20028;-74
2023/05/24 09:35:22;;;;;;;7.07;4.10;;;;;;;26.77;100.00;100665.97;5056948;28;20034;-74
2023/05/24 09:37:48;;;;;;;5.93;4.30;;;;;;;25.60;100.00;100650.44;5056926;28;20131;-75
2023/05/24 09:40:18;;;;;;;7.38;4.20;;;;;;;25.73;100.00;100682.41;5056567;28;20021;-75
2023/05/24 09:42:45;;;;;;;7.25;5.05;;;;;;;26.74;100.00;100674.06;5072101;28;20025;-73
2023/05/24 09:45:11;;;;;;;6.40;4.35;;;;;;;25.48;100.00;100587.13;5074227;28;20036;-73
2023/05/24 09:47:41;;;;;;;8.43;4.25;;;;;;;26.19;100.00;100636.03;5074612;28;20085;-73
2023/05/24 09:50:16;;;;;;;5.32;4.28;;;;;;;25.32;100.00;100690.81;5056569;28;20028;-76
2023/05/24 09:52:42;;;;;;;7.88;4.63;;;;;;;26.58;100.00;100729.28;5057240;28;20445;-75
2023/05/24 09:55:16;;;;;;;6.20;4.38;;;;;;;26.94;100.00;100722.00;5056525;28;20025;-74
2023/05/24 09:58:04;;;;;;;4.93;4.43;;;;;;;26.78;100.00;100704.16;5056625;28;20064;-73
2023/05/24 10:00:35;;;;;;;9.18;4.68;;;;;;;25.30;100.00;100747.41;5056668;28;20482;-74
2023/05/24 10:03:07;;;;;;;7.03;4.38;;;;;;;26.27;100.00;100804.94;5075098;28;20036;-74
2023/05/24 10:05:34;;;;;;;7.10;4.40;;;;;;;25.63;100.00;100768.25;5074529;28;20125;-75
2023/05/24 10:08:04;;;;;;;6.82;4.22;;;;;;;26.32;100.00;100847.16;5074788;28;20048;-75
2023/05/24 10:10:31;;;;;;;5.38;4.10;;;;;;;27.20;100.00;100799.78;5074695;28;20172;-75
2023/05/24 10:12:58;;;;;;;6.00;4.00;;;;;;;27.23;100.00;100815.22;5074304;28;20510;-75
2023/05/24 10:15:25;;;;;;;6.88;4.10;;;;;;;27.37;100.00;100761.84;5074946;28;20033;-75
2023/05/24 10:17:51;;;;;;;7.22;4.30;;;;;;;27.78;100.00;100789.63;5074828;28;20036;-76
2023/05/24 10:20:17;;;;;;;6.78;4.07;;;;;;;27.22;100.00;100732.59;5075042;28;20039;-75
2023/05/24 10:22:45;;;;;;;6.40;4.28;;;;;;;26.69;100.00;100758.88;5056102;28;20032;-75
2023/05/24 10:25:21;;;;;;;6.65;4.03;;;;;;;26.29;100.00;100741.25;5056746;28;20029;-75
2023/05/24 10:27:49;;;;;;;5.53;3.90;;;;;;;25.03;100.00;100728.69;5057304;28;20028;-75
2023/05/24 10:30:24;;;;;;;5.82;4.22;;;;;;;25.61;100.00;100831.88;5056685;28;20032;-76
2023/05/24 10:32:52;;;;;;;8.35;4.82;;;;;;;25.50;100.00;100824.03;5056428;28;20040;-75
2023/05/24 10:35:19;;;;;;;5.63;4.35;;;;;;;25.15;100.00;100758.16;5073878;28;20040;-75
2023/05/24 10:37:48;;;;;;;6.97;4.15;;;;;;;25.20;100.00;100782.06;5073298;28;20051;-76
2023/05/24 10:40:24;;;;;;;8.13;4.60;;;;;;;24.62;100.00;100790.75;5073132;28;20052;-75
2023/05/24 10:42:50;;;;;;;6.78;4.38;;;;;;;24.19;100.00;100776.56;5070162;28;20119;-76
2023/05/24 10:45:36;;;;;;;5.50;4.45;;;;;;;24.83;100.00;100851.66;5056388;28;20036;-75
2023/05/24 10:48:11;;;;;;;10.25;4.68;;;;;;;24.00;100.00;100870.59;5075027;28;20028;-75
2023/05/24 10:50:37;;;;;;;9.70;4.43;;;;;;;24.12;100.00;100855.94;5073779;28;20119;-74
2023/05/24 10:53:19;;;;;;;4.60;4.20;;;;;;;24.10;100.00;100853.44;5073590;28;20116;-73
2023/05/24 10:55:58;;;;;;;5.82;4.15;;;;;;;23.92;100.00;100837.34;5073611;28;20411;-73
2023/05/24 10:58:57;;;;;;;6.03;4.75;;;;;;;24.18;100.00;100902.28;5055598;28;20059;-74
2023/05/24 11:01:25;;;;;;;6.35;4.50;;;;;;;23.67;100.00;100923.06;5072995;28;20487;-74
2023/05/24 11:03:51;;;;;;;4.13;3.13;;;;;;;22.73;100.00;100943.09;5073411;28;20483;-74
2023/05/24 11:06:17;;;;;;;3.63;2.10;;;;;;;22.15;100.00;100938.03;5073900;28;20037;-74
2023/05/24 11:08:43;;;;;;;6.07;2.55;;;;;;;22.36;100.00;100880.53;5054984;28;20092;-75